Katerina L — 3FQL2 — position and weather

sailwx.info

Track history (hours):
 
Tides and Currents Weather Stations Pressure Air Temp Water Temp Dewpoint Dewpoint Depression Visibility Wind Speed Wind Dir Waves Ship Positions

Katerina L

Last reported at 2015-Jul-06 22:15 UTC. Time now 2015-Jul-08 02:17 UTC.
Position N 33°35' E 035°22'.

Length 91 m; draft 5.5 m.

Type: Tanker. MMSI: 356460000.

Date/timePositionNaut miles runAvg speedWind from/ knotsBaromVisibWave heightAir tempDewpointWater temp
2015-Jul-06 22:15N 33°35' E 035°22'0 0.0
2015-Jul-06 21:27N 33°35' E 035°22'0 0.0
2015-Jul-06 19:24N 33°35' E 035°22'0 0.0
2015-Jul-06 18:33N 33°35' E 035°22'0 0.0
2015-Jul-06 17:33N 33°35' E 035°22'0 0.0
2015-Jul-06 16:30N 33°35' E 035°22'0 0.0
2015-Jul-06 15:21N 33°35' E 035°22'0 0.0
2015-Jul-06 14:21N 33°35' E 035°22'0 0.0
2015-Jul-06 09:27N 33°35' E 035°22'0 0.0
2015-Jul-06 08:30N 33°35' E 035°22'0 0.0
2015-Jul-06 07:21N 33°35' E 035°22'0 0.0
2015-Jul-06 06:33N 33°35' E 035°22'0 0.0
2015-Jul-06 02:30N 33°35' E 035°22'0 0.0
2015-Jul-06 00:27N 33°35' E 035°22'0 0.0
2015-Jul-05 19:09N 33°35' E 035°22'0 0.0
2015-Jul-05 17:30N 33°35' E 035°22'0 0.0
2015-Jul-05 16:33N 33°35' E 035°22'0 0.0
2015-Jul-05 14:33N 33°35' E 035°22'0 0.0
2015-Jul-05 13:33N 33°35' E 035°22'0 0.0
2015-Jul-05 04:09N 33°35' E 035°22'0 0.0
2015-Jul-05 03:30N 33°35' E 035°22'0 0.0
2015-Jul-05 02:33N 33°35' E 035°22'0 0.0
2015-Jul-05 01:30N 33°35' E 035°22'0 0.0
2015-Jul-04 22:18N 33°35' E 035°22'127 2.9
2015-Jul-03 02:30N 34°24' E 033°01'8 8.0
2015-Jul-03 01:33N 34°27' E 032°52'8 7.8
2015-Jul-03 00:31N 34°30' E 032°43'281 8.0
2015-Jul-01 13:29N 36°30' E 027°31'8 8.7
2015-Jul-01 12:33N 36°31' E 027°21'9 8.4
2015-Jul-01 11:26N 36°32' E 027°09'9 8.1
2015-Jul-01 10:22N 36°33' E 026°58'17 8.3
2015-Jul-01 08:17N 36°43' E 026°41'7 8.4
2015-Jul-01 07:24N 36°47' E 026°33'43 8.4
2015-Jul-01 02:16N 37°11' E 025°49'6 7.9
2015-Jul-01 01:33N 37°14' E 025°43'8 7.6
2015-Jul-01 00:33N 37°15' E 025°33'8 7.5
2015-Jun-30 23:33N 37°16' E 025°24'8 7.6
2015-Jun-30 22:33N 37°17' E 025°14'8 7.9
2015-Jun-30 21:33N 37°18' E 025°04'8 8.0
2015-Jun-30 20:33N 37°19' E 024°54'7 7.2
2015-Jun-30 19:33N 37°22' E 024°46'52 5.8
2015-Jun-30 10:33N 37°39' E 023°44'7 7.5
2015-Jun-30 09:33N 37°45' E 023°39'8 7.9
2015-Jun-30 08:33N 37°53' E 023°36'7 6.7
2015-Jun-30 07:33N 37°59' E 023°33'3 2.7
2015-Jun-30 06:33N 38°01' E 023°32'1 1.2
2015-Jun-30 05:33N 38°02' E 023°30'0 0.0
2015-Jun-30 04:18N 38°02' E 023°31'0 0.0
2015-Jun-30 03:33N 38°02' E 023°30'0 0.0
2015-Jun-30 02:33N 38°02' E 023°30'0 0.0
2015-Jun-30 01:33N 38°02' E 023°30'0 0.0
2015-Jun-30 00:33N 38°02' E 023°30'0 0.0
2015-Jun-29 23:33N 38°02' E 023°30'0 0.0
2015-Jun-29 22:33N 38°02' E 023°30'0 0.0
2015-Jun-29 21:33N 38°02' E 023°30'0 0.0
2015-Jun-29 20:33N 38°02' E 023°30'0 0.0
2015-Jun-29 19:33N 38°02' E 023°30'0 0.0
2015-Jun-29 18:33N 38°02' E 023°30'0 0.0
2015-Jun-29 17:33N 38°02' E 023°30'0 0.0
2015-Jun-29 16:33N 38°02' E 023°30'0 0.0
2015-Jun-29 15:33N 38°02' E 023°30'0 0.0
2015-Jun-29 14:33N 38°02' E 023°30'0 0.0
2015-Jun-29 13:33N 38°02' E 023°30'0 0.0
2015-Jun-29 12:33N 38°02' E 023°30'0 0.0
2015-Jun-29 11:33N 38°02' E 023°30'0 0.0
2015-Jun-29 10:33N 38°02' E 023°30'0 0.0
2015-Jun-29 09:33N 38°02' E 023°30'0 0.0
2015-Jun-29 08:33N 38°02' E 023°30'0 0.0
2015-Jun-29 07:33N 38°02' E 023°30'0 0.0
2015-Jun-29 06:33N 38°02' E 023°30'0 0.0
2015-Jun-29 05:33N 38°02' E 023°30'4 4.1
2015-Jun-29 04:33N 37°59' E 023°33'5 5.5
2015-Jun-29 03:33N 37°54' E 023°36'2 2.3
2015-Jun-29 02:33N 37°52' E 023°38'7 6.8
2015-Jun-29 01:33N 37°46' E 023°42'7 7.3
2015-Jun-29 00:33N 37°40' E 023°47'9 7.7
2015-Jun-28 23:25N 37°36' E 023°57'38 6.3
2015-Jun-28 17:25N 37°32' E 024°44'1 1.6
2015-Jun-28 16:33N 37°33' E 024°46'0 0.1
2015-Jun-28 12:33N 37°32' E 024°46'8 7.9
2015-Jun-28 11:33N 37°32' E 024°56'7 6.9
2015-Jun-28 10:33N 37°26' E 024°60'1 1.5
2015-Jun-28 09:33N 37°25' E 024°59'0 0.0
2015-Jun-28 08:33N 37°25' E 024°59'0 0.4
2015-Jun-28 07:33N 37°25' E 024°59'7 7.1
2015-Jun-28 06:33N 37°22' E 025°07'7 7.3
2015-Jun-28 05:33N 37°20' E 025°16'8 7.7
2015-Jun-28 04:33N 37°18' E 025°25'7 7.3
2015-Jun-28 03:33N 37°16' E 025°34'7 6.8
2015-Jun-28 02:33N 37°14' E 025°42'  
Track history (hours):
 
Tides and Currents Weather Stations Pressure Air Temp Water Temp Dewpoint Dewpoint Depression Visibility Wind Speed Wind Dir Waves Ship Positions

Katerina L

Last reported at 2015-Jul-06 22:15 UTC. Time now 2015-Jul-08 02:17 UTC.
Position N 33°35' E 035°22'.

Length 91 m; draft 5.5 m.

Type: Tanker. MMSI: 356460000.

Date/timePositionNaut miles runAvg speedWind from/ knotsBaromVisibWave heightAir tempDewpointWater temp
2015-Jul-06 22:15N 33°35' E 035°22'0 0.0
2015-Jul-06 21:27N 33°35' E 035°22'0 0.0
2015-Jul-06 19:24N 33°35' E 035°22'0 0.0
2015-Jul-06 18:33N 33°35' E 035°22'0 0.0
2015-Jul-06 17:33N 33°35' E 035°22'0 0.0
2015-Jul-06 16:30N 33°35' E 035°22'0 0.0
2015-Jul-06 15:21N 33°35' E 035°22'0 0.0
2015-Jul-06 14:21N 33°35' E 035°22'0 0.0
2015-Jul-06 09:27N 33°35' E 035°22'0 0.0
2015-Jul-06 08:30N 33°35' E 035°22'0 0.0
2015-Jul-06 07:21N 33°35' E 035°22'0 0.0
2015-Jul-06 06:33N 33°35' E 035°22'0 0.0
2015-Jul-06 02:30N 33°35' E 035°22'0 0.0
2015-Jul-06 00:27N 33°35' E 035°22'0 0.0
2015-Jul-05 19:09N 33°35' E 035°22'0 0.0
2015-Jul-05 17:30N 33°35' E 035°22'0 0.0
2015-Jul-05 16:33N 33°35' E 035°22'0 0.0
2015-Jul-05 14:33N 33°35' E 035°22'0 0.0
2015-Jul-05 13:33N 33°35' E 035°22'0 0.0
2015-Jul-05 04:09N 33°35' E 035°22'0 0.0
2015-Jul-05 03:30N 33°35' E 035°22'0 0.0
2015-Jul-05 02:33N 33°35' E 035°22'0 0.0
2015-Jul-05 01:30N 33°35' E 035°22'0 0.0
2015-Jul-04 22:18N 33°35' E 035°22'127 2.9
2015-Jul-03 02:30N 34°24' E 033°01'8 8.0
2015-Jul-03 01:33N 34°27' E 032°52'8 7.8
2015-Jul-03 00:31N 34°30' E 032°43'281 8.0
2015-Jul-01 13:29N 36°30' E 027°31'8 8.7
2015-Jul-01 12:33N 36°31' E 027°21'9 8.4
2015-Jul-01 11:26N 36°32' E 027°09'9 8.1
2015-Jul-01 10:22N 36°33' E 026°58'17 8.3
2015-Jul-01 08:17N 36°43' E 026°41'7 8.4
2015-Jul-01 07:24N 36°47' E 026°33'43 8.4
2015-Jul-01 02:16N 37°11' E 025°49'6 7.9
2015-Jul-01 01:33N 37°14' E 025°43'8 7.6
2015-Jul-01 00:33N 37°15' E 025°33'8 7.5
2015-Jun-30 23:33N 37°16' E 025°24'8 7.6
2015-Jun-30 22:33N 37°17' E 025°14'8 7.9
2015-Jun-30 21:33N 37°18' E 025°04'8 8.0
2015-Jun-30 20:33N 37°19' E 024°54'7 7.2
2015-Jun-30 19:33N 37°22' E 024°46'52 5.8
2015-Jun-30 10:33N 37°39' E 023°44'7 7.5
2015-Jun-30 09:33N 37°45' E 023°39'8 7.9
2015-Jun-30 08:33N 37°53' E 023°36'7 6.7
2015-Jun-30 07:33N 37°59' E 023°33'3 2.7
2015-Jun-30 06:33N 38°01' E 023°32'1 1.2
2015-Jun-30 05:33N 38°02' E 023°30'0 0.0
2015-Jun-30 04:18N 38°02' E 023°31'0 0.0
2015-Jun-30 03:33N 38°02' E 023°30'0 0.0
2015-Jun-30 02:33N 38°02' E 023°30'0 0.0
2015-Jun-30 01:33N 38°02' E 023°30'0 0.0
2015-Jun-30 00:33N 38°02' E 023°30'0 0.0
2015-Jun-29 23:33N 38°02' E 023°30'0 0.0
2015-Jun-29 22:33N 38°02' E 023°30'0 0.0
2015-Jun-29 21:33N 38°02' E 023°30'0 0.0
2015-Jun-29 20:33N 38°02' E 023°30'0 0.0
2015-Jun-29 19:33N 38°02' E 023°30'0 0.0
2015-Jun-29 18:33N 38°02' E 023°30'0 0.0
2015-Jun-29 17:33N 38°02' E 023°30'0 0.0
2015-Jun-29 16:33N 38°02' E 023°30'0 0.0
2015-Jun-29 15:33N 38°02' E 023°30'0 0.0
2015-Jun-29 14:33N 38°02' E 023°30'0 0.0
2015-Jun-29 13:33N 38°02' E 023°30'0 0.0
2015-Jun-29 12:33N 38°02' E 023°30'0 0.0
2015-Jun-29 11:33N 38°02' E 023°30'0 0.0
2015-Jun-29 10:33N 38°02' E 023°30'0 0.0
2015-Jun-29 09:33N 38°02' E 023°30'0 0.0
2015-Jun-29 08:33N 38°02' E 023°30'0 0.0
2015-Jun-29 07:33N 38°02' E 023°30'0 0.0
2015-Jun-29 06:33N 38°02' E 023°30'0 0.0
2015-Jun-29 05:33N 38°02' E 023°30'4 4.1
2015-Jun-29 04:33N 37°59' E 023°33'5 5.5
2015-Jun-29 03:33N 37°54' E 023°36'2 2.3
2015-Jun-29 02:33N 37°52' E 023°38'7 6.8
2015-Jun-29 01:33N 37°46' E 023°42'7 7.3
2015-Jun-29 00:33N 37°40' E 023°47'9 7.7
2015-Jun-28 23:25N 37°36' E 023°57'38 6.3
2015-Jun-28 17:25N 37°32' E 024°44'1 1.6
2015-Jun-28 16:33N 37°33' E 024°46'0 0.1
2015-Jun-28 12:33N 37°32' E 024°46'8 7.9
2015-Jun-28 11:33N 37°32' E 024°56'7 6.9
2015-Jun-28 10:33N 37°26' E 024°60'1 1.5
2015-Jun-28 09:33N 37°25' E 024°59'0 0.0
2015-Jun-28 08:33N 37°25' E 024°59'0 0.4
2015-Jun-28 07:33N 37°25' E 024°59'7 7.1
2015-Jun-28 06:33N 37°22' E 025°07'7 7.3
2015-Jun-28 05:33N 37°20' E 025°16'8 7.7
2015-Jun-28 04:33N 37°18' E 025°25'7 7.3
2015-Jun-28 03:33N 37°16' E 025°34'7 6.8
2015-Jun-28 02:33N 37°14' E 025°42'  

Dump ship's entire track history